Time;durP1;ratioP1;P1;durP2;ratioP2;P2;SDS_P1;SDS_P2;PMS_P1;PMS_P2;Temp;Humidity;BMP_temperature;BMP_pressure;BME280_temperature;BME280_humidity;BME280_pressure;Samples;Min_cycle;Max_cycle;Signal;HPM_P1;HPM_P2
2024/04/05 00:00:30;;;;;;;;;41.50;23.50;;;;;;;;10389221;28;43843;-61
2024/04/05 00:05:34;;;;;;;;;48.00;28.50;;;;;;;;10387234;28;42978;-61
2024/04/05 00:10:38;;;;;;;;;46.25;26.75;;;;;;;;10386416;28;43005;-60
2024/04/05 00:15:41;;;;;;;;;45.75;29.00;;;;;;;;10385852;28;44285;-61
2024/04/05 00:20:45;;;;;;;;;41.50;23.00;;;;;;;;10385296;28;42987;-61
2024/04/05 00:25:56;;;;;;;;;45.75;24.50;;;;;;;;10385868;28;43501;-62
2024/04/05 00:31:01;;;;;;;;;39.75;21.25;;;;;;;;10380951;28;43077;-62
2024/04/05 00:36:06;;;;;;;;;48.75;27.50;;;;;;;;10384724;28;43348;-62
2024/04/05 00:41:10;;;;;;;;;45.25;26.50;;;;;;;;10422183;28;43025;-62
2024/04/05 00:46:14;;;;;;;;;38.25;22.50;;;;;;;;10424607;28;42916;-61
2024/04/05 00:51:19;;;;;;;;;44.25;24.75;;;;;;;;10426806;28;43041;-61
2024/04/05 00:56:23;;;;;;;;;48.00;27.25;;;;;;;;10405116;28;43732;-60
2024/04/05 01:01:27;;;;;;;;;44.75;30.00;;;;;;;;10410408;28;43771;-61
2024/04/05 01:06:32;;;;;;;;;48.25;28.00;;;;;;;;10414622;28;43107;-62
2024/04/05 01:11:35;;;;;;;;;46.75;26.00;;;;;;;;10411433;28;43806;-61
2024/04/05 01:16:39;;;;;;;;;49.00;28.25;;;;;;;;10400363;28;43077;-62
2024/04/05 01:21:44;;;;;;;;;38.25;25.25;;;;;;;;10405345;28;44252;-61
2024/04/05 01:26:48;;;;;;;;;42.00;23.00;;;;;;;;10399649;28;43040;-61
2024/04/05 01:31:51;;;;;;;;;48.50;28.00;;;;;;;;10404833;28;43999;-62
2024/04/05 01:36:55;;;;;;;;;47.25;30.25;;;;;;;;10408473;28;43552;-61
2024/04/05 01:41:58;;;;;;;;;49.00;33.00;;;;;;;;10456029;28;43017;-62
2024/04/05 01:47:02;;;;;;;;;52.25;33.25;;;;;;;;10461362;28;43081;-59
2024/04/05 01:52:06;;;;;;;;;53.75;33.00;;;;;;;;10439250;28;43833;-62
2024/04/05 01:57:10;;;;;;;;;56.75;33.50;;;;;;;;10457450;28;44166;-63
2024/04/05 02:02:13;;;;;;;;;53.50;31.00;;;;;;;;10458062;28;43675;-63
2024/04/05 02:07:20;;;;;;;;;52.50;32.25;;;;;;;;10454928;28;43008;-63
2024/04/05 02:12:24;;;;;;;;;51.00;31.25;;;;;;;;10454103;28;43123;-63
2024/04/05 02:17:28;;;;;;;;;48.00;29.50;;;;;;;;10455773;28;43282;-63
2024/04/05 02:22:32;;;;;;;;;54.25;32.25;;;;;;;;10472417;28;43685;-63
2024/04/05 02:27:36;;;;;;;;;52.75;29.25;;;;;;;;10452482;28;43948;-59
2024/04/05 02:32:39;;;;;;;;;46.50;30.25;;;;;;;;10458144;28;43069;-60
2024/04/05 02:37:43;;;;;;;;;52.25;30.25;;;;;;;;10454814;28;44290;-60
2024/04/05 02:42:47;;;;;;;;;43.75;26.00;;;;;;;;10454276;28;44027;-60
2024/04/05 02:47:51;;;;;;;;;49.25;31.75;;;;;;;;10456323;28;43036;-60
2024/04/05 02:52:56;;;;;;;;;47.50;26.00;;;;;;;;10452752;28;42947;-60
2024/04/05 02:57:59;;;;;;;;;48.00;30.25;;;;;;;;10451643;28;44035;-59
2024/04/05 03:03:02;;;;;;;;;49.25;30.25;;;;;;;;10452382;28;43660;-58
2024/04/05 03:08:06;;;;;;;;;51.25;30.00;;;;;;;;10453019;28;43073;-58
2024/04/05 03:13:10;;;;;;;;;50.50;33.25;;;;;;;;10455019;28;43709;-58
2024/04/05 03:18:13;;;;;;;;;45.75;29.25;;;;;;;;10438328;28;44357;-58
2024/04/05 03:23:17;;;;;;;;;49.50;32.25;;;;;;;;10455517;28;43084;-58
2024/04/05 03:28:21;;;;;;;;;49.75;27.00;;;;;;;;10456676;28;43822;-58
2024/04/05 03:33:24;;;;;;;;;45.00;27.25;;;;;;;;10454798;28;43662;-58
2024/04/05 03:38:29;;;;;;;;;43.75;24.25;;;;;;;;10452638;28;43157;-58
2024/04/05 03:43:33;;;;;;;;;46.50;26.50;;;;;;;;10452955;28;43233;-58
2024/04/05 03:48:37;;;;;;;;;51.50;36.00;;;;;;;;10448817;28;43145;-61
2024/04/05 03:53:42;;;;;;;;;57.75;39.00;;;;;;;;10453858;28;43936;-60
2024/04/05 03:58:47;;;;;;;;;69.50;47.25;;;;;;;;10452928;28;43597;-58
2024/04/05 04:03:51;;;;;;;;;67.00;47.25;;;;;;;;10454670;28;44420;-63
2024/04/05 04:08:55;;;;;;;;;70.25;47.50;;;;;;;;10450248;28;43001;-61
2024/04/05 04:13:58;;;;;;;;;64.00;46.00;;;;;;;;10453784;28;43409;-57
2024/04/05 04:19:02;;;;;;;;;68.50;45.50;;;;;;;;10452581;28;43070;-57
2024/04/05 04:24:07;;;;;;;;;71.00;48.00;;;;;;;;10451801;28;43592;-60
2024/04/05 04:29:11;;;;;;;;;72.25;45.75;;;;;;;;10453335;28;42993;-58
2024/04/05 04:34:15;;;;;;;;;69.25;47.25;;;;;;;;10454852;28;44151;-58
2024/04/05 04:39:19;;;;;;;;;60.75;42.75;;;;;;;;10457048;28;42936;-58
2024/04/05 04:44:24;;;;;;;;;62.00;43.75;;;;;;;;10459705;28;43793;-58
2024/04/05 04:49:28;;;;;;;;;64.25;45.25;;;;;;;;10458421;28;43230;-57
2024/04/05 04:54:32;;;;;;;;;67.00;47.00;;;;;;;;10477524;28;43613;-60
2024/04/05 04:59:36;;;;;;;;;73.50;49.25;;;;;;;;10499667;28;43457;-60
2024/04/05 05:04:39;;;;;;;;;75.75;52.25;;;;;;;;10488986;28;43772;-60
2024/04/05 05:09:42;;;;;;;;;76.00;54.25;;;;;;;;10487273;28;43110;-60
2024/04/05 05:14:46;;;;;;;;;72.25;51.00;;;;;;;;10500633;28;42957;-60
2024/04/05 05:19:50;;;;;;;;;72.00;51.50;;;;;;;;10499615;28;42966;-60
2024/04/05 05:24:53;;;;;;;;;72.25;52.50;;;;;;;;10478436;28;43007;-60
2024/04/05 05:29:58;;;;;;;;;75.25;54.50;;;;;;;;10458147;28;43021;-60
2024/04/05 05:35:03;;;;;;;;;72.75;52.25;;;;;;;;10457216;28;43585;-60
2024/04/05 05:40:07;;;;;;;;;77.00;56.00;;;;;;;;10431780;28;43898;-61
2024/04/05 05:45:12;;;;;;;;;75.75;52.25;;;;;;;;10434206;28;48534;-60
2024/04/05 05:50:15;;;;;;;;;75.75;53.75;;;;;;;;10432738;28;43022;-60
2024/04/05 05:55:22;;;;;;;;;75.75;55.25;;;;;;;;10434771;28;48378;-61
2024/04/05 06:00:25;;;;;;;;;76.75;53.75;;;;;;;;10432808;28;48534;-61
2024/04/05 06:05:28;;;;;;;;;76.25;55.00;;;;;;;;10432608;28;42893;-60
2024/04/05 06:10:32;;;;;;;;;80.75;60.50;;;;;;;;10433106;28;42942;-61
2024/04/05 06:15:36;;;;;;;;;77.00;57.75;;;;;;;;10415276;28;43276;-60
2024/04/05 06:20:40;;;;;;;;;77.00;58.00;;;;;;;;10431916;28;43010;-59
2024/04/05 06:25:51;;;;;;;;;76.75;58.00;;;;;;;;10432008;28;43213;-60
2024/04/05 06:30:56;;;;;;;;;84.75;60.50;;;;;;;;10432276;28;42974;-60
2024/04/05 06:36:02;;;;;;;;;77.50;60.00;;;;;;;;10431991;28;50086;-60
2024/04/05 06:41:05;;;;;;;;;77.00;57.75;;;;;;;;10430263;28;43126;-60
2024/04/05 06:46:10;;;;;;;;;79.00;58.50;;;;;;;;10415534;28;42930;-60
2024/04/05 06:51:16;;;;;;;;;78.00;59.00;;;;;;;;10432140;28;42972;-59
2024/04/05 06:56:20;;;;;;;;;79.50;61.75;;;;;;;;10431719;28;43087;-59
2024/04/05 07:01:23;;;;;;;;;84.75;62.25;;;;;;;;10429342;28;43646;-59
2024/04/05 07:06:27;;;;;;;;;78.50;60.00;;;;;;;;10431006;28;43009;-60
2024/04/05 07:11:31;;;;;;;;;77.00;60.50;;;;;;;;10429451;28;43835;-60
2024/04/05 07:16:34;;;;;;;;;79.25;59.50;;;;;;;;10430233;28;43624;-60
2024/04/05 07:21:38;;;;;;;;;81.00;59.25;;;;;;;;10427259;28;42977;-59
2024/04/05 07:26:43;;;;;;;;;77.25;56.50;;;;;;;;10387711;28;43092;-59
2024/04/05 07:31:50;;;;;;;;;89.50;62.25;;;;;;;;10387393;28;43246;-59
2024/04/05 07:36:53;;;;;;;;;75.25;55.75;;;;;;;;10387804;28;43099;-60
2024/04/05 07:41:56;;;;;;;;;79.75;55.00;;;;;;;;10482189;28;44030;-60
2024/04/05 07:47:00;;;;;;;;;78.00;58.00;;;;;;;;10484207;28;44142;-61
2024/04/05 07:52:03;;;;;;;;;80.00;59.00;;;;;;;;10471096;28;43610;-60
2024/04/05 07:57:08;;;;;;;;;75.00;55.75;;;;;;;;10451704;28;43618;-60
2024/04/05 08:02:12;;;;;;;;;78.50;57.75;;;;;;;;10462004;28;43130;-61
2024/04/05 08:07:15;;;;;;;;;78.50;58.00;;;;;;;;10480069;28;43076;-60
2024/04/05 08:12:19;;;;;;;;;82.75;60.25;;;;;;;;10485617;27;43012;-60
2024/04/05 08:17:23;;;;;;;;;84.25;61.25;;;;;;;;10471280;28;43683;-62
2024/04/05 08:22:27;;;;;;;;;81.50;60.25;;;;;;;;10481674;28;43783;-61
2024/04/05 08:27:31;;;;;;;;;78.75;57.75;;;;;;;;10486976;28;42964;-61
2024/04/05 08:32:35;;;;;;;;;74.00;52.75;;;;;;;;10458406;28;43231;-61
2024/04/05 08:37:39;;;;;;;;;78.25;52.75;;;;;;;;10493711;28;43136;-61
2024/04/05 08:42:47;;;;;;;;;74.50;51.50;;;;;;;;10477910;28;44052;-61
2024/04/05 08:47:52;;;;;;;;;76.00;54.50;;;;;;;;10476949;28;43414;-61
2024/04/05 08:52:57;;;;;;;;;73.00;51.50;;;;;;;;10481765;28;43632;-60
2024/04/05 08:58:02;;;;;;;;;72.00;52.50;;;;;;;;10491265;28;43336;-59
2024/04/05 09:03:08;;;;;;;;;75.50;52.25;;;;;;;;10464033;28;42960;-59
2024/04/05 09:08:11;;;;;;;;;74.00;51.25;;;;;;;;10486568;28;43784;-60
2024/04/05 09:13:17;;;;;;;;;76.00;56.75;;;;;;;;10466934;28;43213;-59
2024/04/05 09:18:25;;;;;;;;;80.25;59.00;;;;;;;;10457214;28;43190;-60
2024/04/05 09:23:28;;;;;;;;;80.75;60.50;;;;;;;;10453814;28;44990;-62
2024/04/05 09:28:31;;;;;;;;;75.00;54.25;;;;;;;;10454594;28;43293;-60
2024/04/05 09:33:36;;;;;;;;;78.00;56.25;;;;;;;;10456441;28;43076;-64
2024/04/05 09:38:40;;;;;;;;;80.50;63.00;;;;;;;;10450114;28;43582;-61
2024/04/05 09:43:44;;;;;;;;;80.50;57.75;;;;;;;;10493695;28;43574;-59
2024/04/05 09:48:49;;;;;;;;;83.00;60.50;;;;;;;;10463031;28;43797;-62
2024/04/05 09:53:54;;;;;;;;;86.75;65.75;;;;;;;;10440662;28;49928;-64
2024/04/05 09:58:58;;;;;;;;;101.00;82.00;;;;;;;;10457912;28;43571;-61
2024/04/05 10:04:03;;;;;;;;;117.00;91.75;;;;;;;;10455820;28;42949;-62
2024/04/05 10:09:20;;;;;;;;;125.50;92.75;;;;;;;;10457192;28;43846;-59
2024/04/05 10:14:24;;;;;;;;;113.50;88.00;;;;;;;;10458299;28;43112;-62
2024/04/05 10:19:30;;;;;;;;;105.75;79.75;;;;;;;;10456146;28;43481;-60
2024/04/05 10:24:34;;;;;;;;;99.00;72.25;;;;;;;;10449832;28;43603;-60
2024/04/05 10:29:38;;;;;;;;;87.75;65.50;;;;;;;;10467092;28;43229;-63
2024/04/05 10:34:43;;;;;;;;;83.50;64.75;;;;;;;;10455915;28;43831;-63
2024/04/05 10:39:46;;;;;;;;;84.00;60.25;;;;;;;;10455780;28;43075;-60
2024/04/05 10:44:55;;;;;;;;;77.75;53.25;;;;;;;;10455736;28;43284;-60
2024/04/05 10:50:04;;;;;;;;;79.00;56.00;;;;;;;;10455464;28;43005;-62
2024/04/05 10:55:09;;;;;;;;;78.50;57.00;;;;;;;;10455086;28;43540;-62
2024/04/05 11:00:14;;;;;;;;;76.00;54.75;;;;;;;;10452874;28;42994;-61
2024/04/05 11:05:20;;;;;;;;;80.00;53.00;;;;;;;;10414239;28;43095;-63
2024/04/05 11:10:23;;;;;;;;;83.75;55.25;;;;;;;;10412484;28;43004;-62
2024/04/05 11:15:27;;;;;;;;;74.50;51.50;;;;;;;;10415301;28;43583;-62
2024/04/05 11:20:33;;;;;;;;;72.75;52.00;;;;;;;;10449467;28;49981;-64
2024/04/05 11:25:37;;;;;;;;;77.75;52.00;;;;;;;;10396040;28;43007;-61
2024/04/05 11:30:41;;;;;;;;;73.75;49.50;;;;;;;;10470804;28;43646;-63
2024/04/05 11:35:47;;;;;;;;;73.75;50.50;;;;;;;;10459431;28;48416;-60
2024/04/05 11:40:50;;;;;;;;;76.75;52.25;;;;;;;;10398783;28;49765;-61
2024/04/05 11:45:55;;;;;;;;;75.50;51.50;;;;;;;;10386378;28;49312;-63
2024/04/05 11:50:59;;;;;;;;;72.00;50.00;;;;;;;;10388751;28;51587;-58
2024/04/05 11:56:03;;;;;;;;;87.00;59.00;;;;;;;;10385818;28;49649;-59
2024/04/05 12:01:09;;;;;;;;;73.75;51.25;;;;;;;;10393323;28;43831;-59
2024/04/05 12:06:15;;;;;;;;;73.25;52.00;;;;;;;;10412124;28;43247;-59
2024/04/05 12:11:19;;;;;;;;;78.25;52.00;;;;;;;;10402040;28;43502;-59
2024/04/05 12:16:23;;;;;;;;;76.75;51.50;;;;;;;;10393663;28;43760;-58
2024/04/05 12:21:26;;;;;;;;;74.25;50.75;;;;;;;;10398279;28;44018;-61
2024/04/05 12:26:29;;;;;;;;;77.50;51.50;;;;;;;;10396961;28;43071;-62
2024/04/05 12:31:32;;;;;;;;;75.75;50.50;;;;;;;;10394748;28;43266;-61
2024/04/05 12:36:36;;;;;;;;;69.75;47.75;;;;;;;;10399858;28;43158;-62
2024/04/05 12:41:40;;;;;;;;;73.50;48.50;;;;;;;;10393267;28;43293;-60
2024/04/05 12:46:43;;;;;;;;;69.50;46.25;;;;;;;;10414521;28;43143;-60
2024/04/05 12:51:46;;;;;;;;;72.50;50.25;;;;;;;;10399857;28;43044;-61
2024/04/05 12:56:50;;;;;;;;;71.00;48.75;;;;;;;;10402535;28;43046;-60
2024/04/05 13:01:53;;;;;;;;;72.50;47.75;;;;;;;;10410334;28;43134;-59
2024/04/05 13:07:00;;;;;;;;;72.00;47.25;;;;;;;;10413421;28;43590;-60
2024/04/05 13:12:03;;;;;;;;;75.25;47.50;;;;;;;;10406280;28;43400;-61
2024/04/05 13:17:06;;;;;;;;;71.00;47.25;;;;;;;;10406805;28;43012;-60
2024/04/05 13:22:09;;;;;;;;;69.75;49.50;;;;;;;;10404663;28;43069;-60
2024/04/05 13:27:13;;;;;;;;;74.50;49.25;;;;;;;;10408278;28;44132;-55
2024/04/05 13:32:17;;;;;;;;;72.75;49.00;;;;;;;;10392278;28;45233;-60
2024/04/05 13:37:21;;;;;;;;;67.50;45.25;;;;;;;;10411281;28;43745;-58
2024/04/05 13:42:25;;;;;;;;;70.75;47.25;;;;;;;;10472112;28;43941;-59
2024/04/05 13:47:28;;;;;;;;;72.00;47.25;;;;;;;;10453794;28;43055;-66
2024/04/05 13:52:32;;;;;;;;;70.00;49.50;;;;;;;;10456292;28;43397;-61
2024/04/05 13:57:35;;;;;;;;;67.75;48.00;;;;;;;;10439418;28;44085;-63
2024/04/05 14:02:39;;;;;;;;;66.75;47.50;;;;;;;;10454490;28;43031;-59
2024/04/05 14:07:43;;;;;;;;;68.50;47.75;;;;;;;;10463746;28;43006;-60
2024/04/05 14:12:47;;;;;;;;;68.00;45.50;;;;;;;;10455989;28;43529;-61
2024/04/05 14:17:52;;;;;;;;;69.50;48.25;;;;;;;;10468128;28;43051;-59
2024/04/05 14:22:56;;;;;;;;;68.50;48.25;;;;;;;;10473979;28;43195;-61
2024/04/05 14:28:00;;;;;;;;;67.00;46.50;;;;;;;;10437138;28;43043;-59
2024/04/05 14:33:05;;;;;;;;;62.75;45.25;;;;;;;;10430332;28;43069;-62
2024/04/05 14:38:09;;;;;;;;;69.00;46.25;;;;;;;;10462650;28;43018;-61
2024/04/05 14:43:13;;;;;;;;;71.00;46.25;;;;;;;;10451599;28;43859;-59
2024/04/05 14:48:16;;;;;;;;;67.00;45.75;;;;;;;;10455240;28;43503;-62
2024/04/05 14:53:20;;;;;;;;;68.50;45.25;;;;;;;;10456099;28;44042;-64
2024/04/05 14:58:24;;;;;;;;;69.50;46.75;;;;;;;;10455248;28;43002;-59
2024/04/05 15:03:29;;;;;;;;;69.50;46.25;;;;;;;;10432377;28;43938;-59
2024/04/05 15:08:35;;;;;;;;;69.50;45.75;;;;;;;;10435731;28;43795;-61
2024/04/05 15:13:39;;;;;;;;;68.25;46.50;;;;;;;;10449965;28;43617;-60
2024/04/05 15:18:42;;;;;;;;;69.00;46.00;;;;;;;;10453863;28;42967;-61
2024/04/05 15:23:45;;;;;;;;;65.50;46.00;;;;;;;;10449191;28;43017;-61
2024/04/05 15:28:51;;;;;;;;;63.75;44.25;;;;;;;;10453559;28;43015;-61
2024/04/05 15:33:56;;;;;;;;;70.25;44.00;;;;;;;;10464342;28;43051;-61
2024/04/05 15:39:00;;;;;;;;;64.50;45.50;;;;;;;;10448372;28;43461;-61
2024/04/05 15:44:03;;;;;;;;;71.50;48.50;;;;;;;;10449015;28;44001;-60
2024/04/05 15:49:07;;;;;;;;;69.00;47.25;;;;;;;;10423524;28;42903;-60
2024/04/05 15:54:10;;;;;;;;;70.00;47.00;;;;;;;;10417197;28;43779;-60
2024/04/05 15:59:14;;;;;;;;;69.00;45.75;;;;;;;;10410564;28;43962;-60
2024/04/05 16:04:19;;;;;;;;;69.50;47.50;;;;;;;;10443415;28;43011;-60
2024/04/05 16:09:22;;;;;;;;;68.50;46.25;;;;;;;;10422979;28;43001;-60
2024/04/05 16:14:27;;;;;;;;;70.50;47.75;;;;;;;;10425288;28;42911;-60
2024/04/05 16:19:30;;;;;;;;;67.50;45.50;;;;;;;;10456695;28;43573;-60
2024/04/05 16:24:33;;;;;;;;;67.25;47.25;;;;;;;;10448469;28;43010;-60
2024/04/05 16:29:40;;;;;;;;;71.00;47.25;;;;;;;;10471073;28;43240;-60
2024/04/05 16:34:47;;;;;;;;;70.00;46.25;;;;;;;;10446656;28;43148;-60
2024/04/05 16:39:50;;;;;;;;;70.00;49.00;;;;;;;;10462661;28;42981;-60
2024/04/05 16:44:54;;;;;;;;;69.25;49.00;;;;;;;;10431025;28;43595;-60
2024/04/05 16:49:58;;;;;;;;;70.50;49.25;;;;;;;;10453148;28;43566;-61
2024/04/05 16:55:03;;;;;;;;;71.25;48.50;;;;;;;;10458344;28;43042;-60
2024/04/05 17:00:07;;;;;;;;;71.00;48.50;;;;;;;;10459737;28;42997;-60
2024/04/05 17:05:13;;;;;;;;;68.50;46.75;;;;;;;;10458451;28;43029;-60
2024/04/05 17:10:16;;;;;;;;;68.25;47.00;;;;;;;;10473120;28;44285;-60
2024/04/05 17:15:23;;;;;;;;;66.75;48.00;;;;;;;;10460864;28;49635;-60
2024/04/05 17:20:27;;;;;;;;;69.00;46.50;;;;;;;;10420758;28;48599;-60
2024/04/05 17:25:30;;;;;;;;;67.75;45.50;;;;;;;;10457904;28;49023;-60
2024/04/05 17:30:34;;;;;;;;;66.25;48.25;;;;;;;;10455296;28;49545;-60
2024/04/05 17:35:39;;;;;;;;;62.50;45.00;;;;;;;;10457728;28;43007;-61
2024/04/05 17:40:43;;;;;;;;;69.50;46.00;;;;;;;;10417245;28;49429;-60
2024/04/05 17:45:47;;;;;;;;;68.00;46.50;;;;;;;;10421925;28;48775;-61
2024/04/05 17:50:50;;;;;;;;;67.25;48.75;;;;;;;;10425251;28;43623;-61
2024/04/05 17:55:59;;;;;;;;;68.00;45.75;;;;;;;;10417221;28;49553;-61
2024/04/05 18:01:03;;;;;;;;;70.25;46.75;;;;;;;;10403661;28;49834;-61
2024/04/05 18:06:06;;;;;;;;;68.75;47.00;;;;;;;;10417496;28;42928;-60
2024/04/05 18:11:10;;;;;;;;;74.25;49.75;;;;;;;;10421587;28;43589;-60
2024/04/05 18:16:14;;;;;;;;;68.00;48.00;;;;;;;;10390816;28;43745;-60
2024/04/05 18:21:17;;;;;;;;;70.75;47.50;;;;;;;;10410526;28;44406;-61
2024/04/05 18:26:20;;;;;;;;;71.50;48.75;;;;;;;;10423486;28;43876;-61
2024/04/05 18:31:24;;;;;;;;;71.00;50.00;;;;;;;;10430957;28;43299;-60
2024/04/05 18:36:30;;;;;;;;;72.50;47.25;;;;;;;;10413469;28;43499;-60
2024/04/05 18:41:33;;;;;;;;;72.00;50.00;;;;;;;;10398084;28;44713;-61
2024/04/05 18:46:40;;;;;;;;;65.50;46.50;;;;;;;;10388261;28;43599;-61
2024/04/05 18:51:45;;;;;;;;;65.00;46.25;;;;;;;;10387536;28;43436;-61
2024/04/05 18:56:48;;;;;;;;;69.00;48.25;;;;;;;;10388346;28;42943;-60
2024/04/05 19:01:52;;;;;;;;;69.75;47.25;;;;;;;;10387916;28;43962;-60
2024/04/05 19:06:56;;;;;;;;;68.50;49.50;;;;;;;;10390250;28;43010;-60
2024/04/05 19:12:00;;;;;;;;;71.00;48.25;;;;;;;;10392804;28;43006;-60
2024/04/05 19:17:04;;;;;;;;;66.50;46.50;;;;;;;;10390158;28;43639;-60
2024/04/05 19:22:09;;;;;;;;;67.75;48.00;;;;;;;;10388044;28;43247;-60
2024/04/05 19:27:28;;;;;;;;;64.50;42.75;;;;;;;;10388767;28;43591;-60
2024/04/05 19:32:31;;;;;;;;;63.75;46.00;;;;;;;;10391273;28;43793;-60
2024/04/05 19:37:37;;;;;;;;;65.75;45.25;;;;;;;;10401590;28;42996;-61
2024/04/05 19:42:40;;;;;;;;;69.50;49.00;;;;;;;;10446880;28;43491;-61
2024/04/05 19:47:45;;;;;;;;;66.75;48.25;;;;;;;;10433570;28;45397;-61
2024/04/05 19:52:50;;;;;;;;;69.50;47.00;;;;;;;;10453322;28;43077;-60
2024/04/05 19:57:55;;;;;;;;;68.75;46.50;;;;;;;;10453110;28;43653;-60
2024/04/05 20:02:58;;;;;;;;;66.50;46.00;;;;;;;;10458488;28;43009;-60
2024/04/05 20:08:02;;;;;;;;;70.00;47.75;;;;;;;;10472472;27;43059;-60
2024/04/05 20:13:06;;;;;;;;;69.25;46.75;;;;;;;;10457036;28;43124;-60
2024/04/05 20:18:09;;;;;;;;;68.75;48.50;;;;;;;;10457346;28;43661;-61
2024/04/05 20:23:14;;;;;;;;;67.50;47.00;;;;;;;;10460143;28;43026;-60
2024/04/05 20:32:25;;;;;;;;;69.50;48.75;;;;;;;;10464457;28;43019;-60
2024/04/05 20:33:41;;;;;;;;;67.75;47.75;;;;;;;;10460441;28;42930;-60
2024/04/05 20:38:47;;;;;;;;;68.50;48.25;;;;;;;;10455532;28;42971;-60
2024/04/05 20:43:50;;;;;;;;;68.75;48.00;;;;;;;;10467665;28;42898;-60
2024/04/05 20:48:53;;;;;;;;;72.25;51.50;;;;;;;;10455987;28;43579;-60
2024/04/05 20:53:57;;;;;;;;;71.75;48.50;;;;;;;;10486416;28;43750;-60
2024/04/05 20:59:01;;;;;;;;;66.75;47.50;;;;;;;;10454510;28;42910;-60
2024/04/05 21:04:05;;;;;;;;;68.00;48.25;;;;;;;;10458186;28;42888;-60
2024/04/05 21:09:09;;;;;;;;;65.25;47.25;;;;;;;;10468683;28;43022;-60
2024/04/05 21:14:13;;;;;;;;;68.25;48.00;;;;;;;;10457942;28;44454;-60
2024/04/05 21:19:18;;;;;;;;;67.25;49.00;;;;;;;;10409440;28;43275;-60
2024/04/05 21:24:22;;;;;;;;;68.25;46.00;;;;;;;;10410899;28;43045;-60
2024/04/05 21:29:25;;;;;;;;;70.00;47.75;;;;;;;;10436034;28;45069;-60
2024/04/05 21:34:29;;;;;;;;;68.50;48.75;;;;;;;;10461637;28;43425;-60
2024/04/05 21:39:33;;;;;;;;;67.00;49.00;;;;;;;;10468409;28;43096;-60
2024/04/05 21:44:37;;;;;;;;;69.50;48.50;;;;;;;;10451677;28;43768;-61
2024/04/05 21:49:40;;;;;;;;;69.00;49.25;;;;;;;;10425871;28;43051;-61
2024/04/05 21:54:43;;;;;;;;;69.75;50.75;;;;;;;;10415076;28;42893;-61
2024/04/05 21:59:47;;;;;;;;;69.75;49.75;;;;;;;;10463272;28;43777;-60
2024/04/05 22:04:50;;;;;;;;;68.25;48.25;;;;;;;;10459843;28;43622;-61
2024/04/05 22:09:54;;;;;;;;;68.00;47.25;;;;;;;;10476524;28;43529;-61
2024/04/05 22:14:57;;;;;;;;;71.25;50.00;;;;;;;;10454846;28;43118;-60
2024/04/05 22:20:01;;;;;;;;;66.75;48.75;;;;;;;;10452907;28;42931;-60
2024/04/05 22:25:05;;;;;;;;;68.50;47.00;;;;;;;;10402259;28;43504;-60
2024/04/05 22:30:11;;;;;;;;;72.25;49.50;;;;;;;;10450192;28;42966;-60
2024/04/05 22:35:14;;;;;;;;;69.25;48.50;;;;;;;;10461078;28;50120;-61
2024/04/05 22:40:18;;;;;;;;;66.50;46.50;;;;;;;;10417362;28;42963;-61
2024/04/05 22:45:23;;;;;;;;;67.75;48.00;;;;;;;;10409775;28;43684;-61
2024/04/05 22:50:26;;;;;;;;;72.00;50.75;;;;;;;;10396751;28;43142;-60
2024/04/05 22:55:30;;;;;;;;;68.00;49.00;;;;;;;;10425086;28;44117;-60
2024/04/05 23:00:34;;;;;;;;;72.50;49.50;;;;;;;;10425256;28;48690;-62
2024/04/05 23:05:38;;;;;;;;;70.25;50.75;;;;;;;;10408243;28;43136;-61
2024/04/05 23:10:42;;;;;;;;;71.00;48.75;;;;;;;;10419003;28;50432;-61
2024/04/05 23:15:46;;;;;;;;;74.25;51.25;;;;;;;;10397521;28;48308;-62
2024/04/05 23:20:50;;;;;;;;;71.50;50.25;;;;;;;;10405647;28;43506;-59
2024/04/05 23:25:53;;;;;;;;;79.00;56.75;;;;;;;;10403924;28;43300;-62
2024/04/05 23:30:57;;;;;;;;;78.75;57.50;;;;;;;;10406583;28;43006;-60
2024/04/05 23:36:03;;;;;;;;;76.75;56.50;;;;;;;;10385371;28;42974;-61
2024/04/05 23:41:07;;;;;;;;;77.00;58.75;;;;;;;;10391529;28;44112;-62
2024/04/05 23:46:11;;;;;;;;;77.75;56.25;;;;;;;;10385470;28;43613;-61
2024/04/05 23:51:15;;;;;;;;;78.75;56.25;;;;;;;;10389379;28;43132;-61
2024/04/05 23:56:25;;;;;;;;;79.00;56.00;;;;;;;;10385207;28;43084;-60
